createdAt,value
2023-03-20T00:02:07.012Z,48.55
2023-03-20T00:04:34.847Z,52.65
2023-03-20T00:07:03.886Z,48.85
2023-03-20T00:09:31.515Z,47.88
2023-03-20T00:11:59.277Z,51.58
2023-03-20T00:14:26.647Z,51.47
2023-03-20T00:16:54.183Z,49.88
2023-03-20T00:19:26.411Z,50.45
2023-03-20T00:21:55.531Z,49.50
2023-03-20T00:24:23.666Z,50.42
2023-03-20T00:26:53.172Z,49.85
2023-03-20T00:29:30.914Z,47.95
2023-03-20T00:31:59.313Z,51.78
2023-03-20T00:34:32.691Z,47.83
2023-03-20T00:37:00.254Z,49.25
2023-03-20T00:39:30.455Z,48.17
2023-03-20T00:42:04.136Z,47.78
2023-03-20T00:44:42.843Z,49.78
2023-03-20T00:47:18.789Z,52.03
2023-03-20T00:49:48.138Z,49.30
2023-03-20T00:52:17.679Z,50.90
2023-03-20T00:54:44.928Z,50.08
2023-03-20T00:57:27.912Z,51.28
2023-03-20T01:00:17.266Z,49.17
2023-03-20T01:02:46.056Z,46.25
2023-03-20T01:05:13.823Z,47.20
2023-03-20T01:07:41.679Z,46.22
2023-03-20T01:10:11.697Z,46.22
2023-03-20T01:12:41.039Z,46.80
2023-03-20T01:15:23.763Z,44.13
2023-03-20T01:17:52.971Z,48.75
2023-03-20T01:20:24.358Z,47.72
2023-03-20T01:22:52.115Z,46.55
2023-03-20T01:25:19.342Z,47.22
2023-03-20T01:27:52.541Z,47.80
2023-03-20T01:30:26.815Z,47.08
2023-03-20T01:32:55.666Z,46.95
2023-03-20T01:35:25.962Z,46.28
2023-03-20T01:37:53.728Z,46.08
2023-03-20T01:40:57.325Z,42.83
2023-03-20T01:43:29.286Z,43.85
2023-03-20T01:46:11.597Z,41.28
2023-03-20T01:48:52.320Z,40.83
2023-03-20T01:51:26.049Z,39.67
2023-03-20T01:54:04.548Z,37.00
2023-03-20T01:56:37.632Z,35.67
2023-03-20T01:59:17.079Z,36.95
2023-03-20T02:01:45.519Z,35.90
2023-03-20T02:04:15.717Z,35.58
2023-03-20T02:07:07.339Z,32.90
2023-03-20T02:09:49.854Z,33.58
2023-03-20T02:12:23.475Z,33.58
2023-03-20T02:14:53.230Z,33.63
2023-03-20T02:17:42.688Z,34.03
2023-03-20T02:20:23.170Z,32.92
2023-03-20T02:23:05.628Z,34.50
2023-03-20T02:26:29.235Z,32.92
2023-03-20T02:29:18.553Z,31.95
2023-03-20T02:32:20.885Z,30.98
2023-03-20T02:35:18.494Z,31.98
2023-03-20T02:38:04.606Z,33.45
2023-03-20T02:40:46.052Z,32.70
2023-03-20T02:43:43.235Z,33.70
2023-03-20T02:46:19.809Z,33.80
2023-03-20T02:49:33.766Z,32.17
2023-03-20T02:52:09.513Z,31.98
2023-03-20T02:55:14.193Z,29.63
2023-03-20T02:57:50.836Z,29.65
2023-03-20T03:00:36.719Z,30.33
2023-03-20T03:03:31.166Z,28.48
2023-03-20T03:06:24.689Z,29.95
2023-03-20T03:09:17.616Z,30.83
2023-03-20T03:11:50.615Z,31.77
2023-03-20T03:14:29.379Z,31.10
2023-03-20T03:16:59.250Z,31.17
2023-03-20T03:19:29.543Z,30.75
2023-03-20T03:21:57.200Z,30.83
2023-03-20T03:24:40.233Z,31.23
2023-03-20T03:27:21.813Z,30.65
2023-03-20T03:29:56.663Z,29.55
2023-03-20T03:32:35.934Z,29.65
2023-03-20T03:35:07.052Z,29.25
2023-03-20T03:37:58.765Z,29.33
2023-03-20T03:40:41.554Z,29.88
2023-03-20T03:43:23.087Z,30.13
2023-03-20T03:45:58.097Z,30.83
2023-03-20T03:48:32.767Z,28.20
2023-03-20T03:51:05.863Z,28.40
2023-03-20T03:53:44.303Z,28.83
2023-03-20T03:56:14.330Z,28.45
2023-03-20T03:59:05.130Z,29.00
2023-03-20T04:01:35.829Z,27.73
2023-03-20T04:04:10.540Z,27.05
2023-03-20T04:06:37.863Z,27.67
2023-03-20T04:09:07.268Z,27.50
2023-03-20T04:11:35.830Z,26.50
2023-03-20T04:14:03.613Z,26.67
2023-03-20T04:16:31.557Z,27.38
2023-03-20T04:18:59.267Z,27.88
2023-03-20T04:21:26.691Z,27.77
2023-03-20T04:23:54.197Z,29.17
2023-03-20T04:26:23.559Z,25.08
2023-03-20T04:28:51.681Z,24.75
2023-03-20T04:34:16.898Z,24.42
2023-03-20T04:37:08.507Z,23.67
2023-03-20T04:39:54.544Z,25.42
2023-03-20T04:42:21.951Z,24.25
2023-03-20T04:44:51.554Z,23.55
2023-03-20T04:47:18.927Z,22.23
2023-03-20T04:49:46.877Z,23.63
2023-03-20T04:52:14.110Z,22.75
2023-03-20T04:54:44.461Z,23.50
2023-03-20T04:57:12.436Z,22.13
2023-03-20T04:59:40.769Z,21.58
2023-03-20T05:02:08.295Z,21.25
2023-03-20T05:04:35.863Z,20.63
2023-03-20T05:07:03.347Z,19.50
2023-03-20T05:09:39.636Z,21.85
2023-03-20T05:12:09.776Z,19.13
2023-03-20T05:14:37.260Z,20.20
2023-03-20T05:17:24.998Z,20.90
2023-03-20T05:20:12.724Z,20.52
2023-03-20T05:23:06.233Z,20.80
2023-03-20T05:25:54.239Z,19.67
2023-03-20T05:28:53.908Z,18.30
2023-03-20T05:31:37.021Z,18.52
2023-03-20T05:34:18.796Z,18.77
2023-03-20T05:37:00.981Z,18.65
2023-03-20T05:39:56.644Z,18.38
2023-03-20T05:42:47.182Z,17.73
2023-03-20T05:45:27.048Z,17.98
2023-03-20T05:48:10.936Z,19.02
2023-03-20T05:50:49.136Z,18.05
2023-03-20T05:53:25.139Z,19.13
2023-03-20T05:56:12.321Z,18.25
2023-03-20T05:59:08.949Z,17.10
2023-03-20T06:01:47.719Z,17.08
2023-03-20T06:04:26.078Z,17.33
2023-03-20T06:07:11.781Z,16.10
2023-03-20T06:09:42.188Z,16.88
2023-03-20T06:12:12.809Z,14.88
2023-03-20T06:14:41.334Z,14.32
2023-03-20T06:17:09.610Z,13.82
2023-03-20T06:19:38.254Z,13.90
2023-03-20T06:22:06.612Z,13.27
2023-03-20T06:24:35.500Z,13.60
2023-03-20T06:27:02.804Z,12.73
2023-03-20T06:29:30.515Z,13.45
2023-03-20T06:32:09.008Z,12.77
2023-03-20T06:34:36.672Z,12.43
2023-03-20T06:37:04.024Z,12.38
2023-03-20T06:39:31.750Z,12.48
2023-03-20T06:41:59.103Z,12.70
2023-03-20T06:44:27.172Z,11.68
2023-03-20T06:47:14.630Z,12.00
2023-03-20T06:49:45.267Z,12.10
2023-03-20T06:52:18.026Z,11.90
2023-03-20T06:54:52.203Z,12.43
2023-03-20T06:57:20.179Z,11.90
2023-03-20T06:59:47.881Z,12.65
2023-03-20T07:02:16.398Z,11.88
2023-03-20T07:04:44.542Z,12.32
2023-03-20T07:07:11.800Z,11.25
2023-03-20T07:09:39.727Z,12.82
2023-03-20T07:12:14.544Z,12.13
2023-03-20T07:14:43.342Z,12.00
2023-03-20T07:17:15.125Z,11.93
2023-03-20T07:19:42.802Z,11.25
2023-03-20T07:22:20.910Z,11.55
2023-03-20T07:24:48.678Z,11.45
2023-03-20T07:27:17.979Z,11.40
2023-03-20T07:29:46.378Z,11.07
2023-03-20T07:32:17.181Z,11.48
2023-03-20T07:34:50.412Z,11.57
2023-03-20T07:37:19.935Z,11.82
2023-03-20T07:39:58.214Z,11.70
2023-03-20T07:42:31.463Z,10.95
2023-03-20T07:45:02.190Z,12.23
2023-03-20T07:47:30.614Z,12.93
2023-03-20T07:49:58.336Z,13.15
2023-03-20T07:52:25.842Z,12.80
2023-03-20T07:54:54.224Z,13.30
2023-03-20T07:57:21.618Z,14.18
2023-03-20T07:59:49.439Z,13.18
2023-03-20T08:02:17.794Z,13.68
2023-03-20T08:04:46.550Z,14.65
2023-03-20T08:07:13.999Z,15.65
2023-03-20T08:09:41.710Z,14.52
2023-03-20T08:12:09.069Z,15.75
2023-03-20T08:14:38.773Z,14.63
2023-03-20T08:17:15.056Z,15.48
2023-03-20T08:19:43.870Z,14.73
2023-03-20T08:22:11.094Z,16.23
2023-03-20T08:24:38.684Z,15.13
2023-03-20T08:27:05.918Z,14.75
2023-03-20T08:29:33.451Z,15.63
2023-03-20T08:32:00.961Z,16.17
2023-03-20T08:34:28.626Z,15.18
2023-03-20T08:36:56.080Z,15.32
2023-03-20T08:39:23.624Z,14.02
2023-03-20T08:41:51.243Z,14.57
2023-03-20T08:44:18.819Z,14.10
2023-03-20T08:46:46.741Z,13.10
2023-03-20T08:49:16.151Z,12.98
2023-03-20T08:51:43.375Z,12.25
2023-03-20T08:54:11.084Z,12.10
2023-03-20T08:56:38.438Z,12.70
2023-03-20T08:59:06.119Z,12.82
2023-03-20T09:01:48.287Z,12.88
2023-03-20T09:04:18.099Z,13.02
2023-03-20T09:06:45.545Z,11.63
2023-03-20T09:09:15.994Z,10.68
2023-03-20T09:11:43.367Z,11.35
2023-03-20T09:14:11.216Z,10.13
2023-03-20T09:16:38.583Z,10.65
2023-03-20T09:19:06.192Z,9.57
2023-03-20T09:21:36.517Z,9.52
2023-03-20T09:24:06.353Z,8.50
2023-03-20T09:26:33.863Z,9.07
2023-03-20T09:29:01.409Z,8.98
2023-03-20T09:31:28.782Z,9.30
2023-03-20T09:33:56.446Z,8.73
2023-03-20T09:36:23.763Z,8.82
2023-03-20T09:38:51.372Z,9.20
2023-03-20T09:41:22.609Z,8.73
2023-03-20T09:44:05.050Z,8.55
2023-03-20T09:46:49.416Z,7.88
2023-03-20T09:49:44.900Z,7.90
2023-03-20T09:52:27.458Z,7.93
2023-03-20T09:54:58.740Z,7.05
2023-03-20T09:57:30.403Z,8.13
2023-03-20T10:00:05.588Z,7.22
2023-03-20T10:03:01.256Z,7.28
2023-03-20T10:05:34.574Z,6.65
2023-03-20T10:08:04.812Z,6.30
2023-03-20T10:10:51.614Z,6.28
2023-03-20T10:13:30.559Z,6.50
2023-03-20T10:16:24.694Z,6.68
2023-03-20T10:19:21.841Z,5.68
2023-03-20T10:21:56.184Z,6.00
2023-03-20T10:24:32.292Z,5.38
2023-03-20T10:27:06.492Z,4.68
2023-03-20T10:30:03.606Z,4.80
2023-03-20T10:32:43.235Z,5.57
2023-03-20T10:35:37.795Z,4.97
2023-03-20T10:38:25.032Z,6.00
2023-03-20T10:40:54.109Z,5.45
2023-03-20T10:43:27.501Z,5.72
2023-03-20T10:46:04.533Z,6.13
2023-03-20T10:48:44.441Z,6.38
2023-03-20T10:51:16.516Z,6.28
2023-03-20T10:53:59.073Z,6.47
2023-03-20T10:56:47.881Z,6.93
2023-03-20T10:59:29.520Z,6.60
2023-03-20T11:01:56.958Z,6.80
2023-03-20T11:04:24.629Z,5.85
2023-03-20T11:07:03.434Z,6.35
2023-03-20T11:09:32.671Z,7.22
2023-03-20T11:12:02.356Z,7.15
2023-03-20T11:14:39.825Z,7.38
2023-03-20T11:17:07.506Z,7.93
2023-03-20T11:19:37.464Z,8.48
2023-03-20T11:22:31.359Z,8.43
2023-03-20T11:25:04.258Z,8.10
2023-03-20T11:27:35.978Z,8.32
2023-03-20T11:30:07.500Z,9.63
2023-03-20T11:32:39.739Z,9.50
2023-03-20T11:35:25.987Z,10.23
2023-03-20T11:37:55.902Z,11.73
2023-03-20T11:40:32.471Z,12.75
2023-03-20T11:43:04.260Z,12.85
2023-03-20T11:45:46.277Z,13.07
2023-03-20T11:48:20.125Z,13.95
2023-03-20T11:51:01.256Z,14.82
2023-03-20T11:53:36.027Z,13.48
2023-03-20T11:56:13.856Z,13.00
2023-03-20T11:59:03.011Z,13.60
2023-03-20T12:01:49.092Z,12.73
2023-03-20T12:04:43.044Z,12.38
2023-03-20T12:07:25.798Z,11.68
2023-03-20T12:10:04.844Z,10.27
2023-03-20T12:12:51.897Z,10.82
2023-03-20T12:15:38.948Z,11.40
2023-03-20T12:18:16.633Z,10.27
2023-03-20T12:20:54.139Z,9.25
2023-03-20T12:23:31.360Z,10.00
2023-03-20T12:26:11.435Z,10.82
2023-03-20T12:28:41.998Z,11.30
2023-03-20T12:31:36.064Z,11.05
2023-03-20T12:34:24.094Z,11.05
2023-03-20T12:36:57.661Z,11.65
2023-03-20T12:39:29.590Z,11.55
2023-03-20T12:42:35.647Z,11.60
2023-03-20T12:45:12.352Z,10.65
2023-03-20T12:48:01.367Z,11.27
2023-03-20T12:50:35.646Z,10.15
2023-03-20T12:53:33.711Z,9.40
2023-03-20T12:56:13.028Z,7.95
2023-03-20T12:58:59.171Z,8.18
2023-03-20T13:01:39.207Z,6.63
2023-03-20T13:04:38.112Z,6.28
2023-03-20T13:07:17.530Z,6.55
2023-03-20T13:10:05.820Z,6.25
2023-03-20T13:12:47.390Z,6.00
2023-03-20T13:15:31.797Z,6.70
2023-03-20T13:18:22.245Z,7.55
2023-03-20T13:20:56.197Z,6.63
2023-03-20T13:23:44.489Z,6.82
2023-03-20T13:26:30.736Z,7.28
2023-03-20T13:29:05.423Z,7.78
2023-03-20T13:31:57.629Z,7.40
2023-03-20T13:34:30.012Z,7.18
2023-03-20T13:37:25.757Z,8.07
2023-03-20T13:40:11.801Z,8.50
2023-03-20T13:42:45.954Z,8.48
2023-03-20T13:45:38.070Z,7.75
2023-03-20T13:48:20.320Z,7.20
2023-03-20T13:50:58.698Z,6.85
2023-03-20T13:53:46.233Z,6.90
2023-03-20T13:56:31.614Z,6.97
2023-03-20T13:59:43.692Z,6.50
2023-03-20T14:02:38.833Z,5.55
2023-03-20T14:05:22.982Z,5.50
2023-03-20T14:07:56.824Z,6.45
2023-03-20T14:10:24.316Z,6.05
2023-03-20T14:13:01.924Z,6.10
2023-03-20T14:15:37.052Z,5.05
2023-03-20T14:18:17.053Z,5.40
2023-03-20T14:20:56.806Z,4.97
2023-03-20T14:23:35.242Z,4.50
2023-03-20T14:26:26.386Z,4.50
2023-03-20T14:28:59.152Z,4.80
2023-03-20T14:31:37.800Z,4.97
2023-03-20T14:34:14.075Z,4.55
2023-03-20T14:37:03.697Z,4.78
2023-03-20T14:40:20.155Z,5.22
2023-03-20T14:42:57.919Z,4.88
2023-03-20T14:45:37.308Z,4.07
2023-03-20T14:48:27.115Z,4.22
2023-03-20T14:51:46.010Z,4.82
2023-03-20T14:54:25.984Z,3.75
2023-03-20T14:56:54.007Z,4.28
2023-03-20T14:59:23.462Z,3.85
2023-03-20T15:01:59.188Z,3.22
2023-03-20T15:04:39.403Z,3.78
2023-03-20T15:07:15.893Z,3.10
2023-03-20T15:09:49.070Z,2.70
2023-03-20T15:12:29.187Z,3.42
2023-03-20T15:15:03.344Z,2.65
2023-03-20T15:17:40.164Z,2.95
2023-03-20T15:20:17.911Z,3.17
2023-03-20T15:22:57.712Z,3.67
2023-03-20T15:25:49.288Z,3.53
2023-03-20T15:28:21.431Z,3.13
2023-03-20T15:33:41.871Z,3.63
2023-03-20T15:36:15.733Z,3.72
2023-03-20T15:38:44.410Z,3.63
2023-03-20T15:41:34.419Z,3.67
2023-03-20T15:44:23.352Z,4.13
2023-03-20T15:47:00.564Z,3.58
2023-03-20T15:49:31.029Z,3.88
2023-03-20T15:52:07.230Z,4.10
2023-03-20T15:54:37.547Z,3.58
2023-03-20T15:57:05.554Z,4.03
2023-03-20T15:59:34.485Z,3.97
2023-03-20T16:02:02.433Z,4.53
2023-03-20T16:04:30.445Z,3.97
2023-03-20T16:07:00.543Z,5.05
2023-03-20T16:09:28.701Z,3.63
2023-03-20T16:11:57.604Z,3.88
2023-03-20T16:14:28.777Z,3.78
2023-03-20T16:16:59.090Z,3.77
2023-03-20T16:19:29.053Z,3.45
2023-03-20T16:22:11.754Z,2.70
2023-03-20T16:24:40.503Z,2.17
2023-03-20T16:27:09.956Z,2.13
2023-03-20T16:29:42.934Z,2.22
2023-03-20T16:32:34.277Z,2.20
2023-03-20T16:35:06.212Z,2.58
2023-03-20T16:37:42.974Z,3.03
2023-03-20T16:40:36.847Z,2.47
2023-03-20T16:43:14.548Z,2.72
2023-03-20T16:45:45.718Z,2.03
2023-03-20T16:48:13.072Z,1.75
2023-03-20T16:50:43.311Z,3.30
2023-03-20T16:53:12.969Z,2.78
2023-03-20T16:55:46.714Z,3.03
2023-03-20T16:58:21.134Z,3.22
2023-03-20T17:00:53.205Z,3.30
2023-03-20T17:05:57.183Z,3.25
2023-03-20T17:08:48.287Z,3.00
2023-03-20T17:11:34.466Z,3.10
2023-03-20T17:14:03.618Z,3.40
2023-03-20T17:16:33.251Z,3.58
2023-03-20T17:19:04.487Z,3.15
2023-03-20T17:21:32.087Z,2.95
2023-03-20T17:23:59.523Z,3.10
2023-03-20T17:26:27.218Z,2.63
2023-03-20T17:28:55.325Z,2.65
2023-03-20T17:31:22.964Z,3.22
2023-03-20T17:33:50.582Z,3.22
2023-03-20T17:36:24.417Z,2.97
2023-03-20T17:38:51.739Z,3.25
2023-03-20T17:41:20.822Z,3.08
2023-03-20T17:43:48.431Z,3.20
2023-03-20T17:46:21.963Z,3.35
2023-03-20T17:48:50.438Z,4.03
2023-03-20T17:51:17.953Z,3.88
2023-03-20T17:53:45.375Z,3.40
2023-03-20T17:56:15.369Z,3.40
2023-03-20T17:58:45.837Z,3.63
2023-03-20T18:01:14.069Z,3.50
2023-03-20T18:03:41.862Z,3.30
2023-03-20T18:06:25.325Z,3.72
2023-03-20T18:08:53.039Z,3.80
2023-03-20T18:11:21.130Z,3.05
2023-03-20T18:13:48.456Z,3.03
2023-03-20T18:16:27.051Z,3.10
2023-03-20T18:18:54.973Z,2.55
2023-03-20T18:21:22.555Z,2.67
2023-03-20T18:23:49.926Z,2.38
2023-03-20T18:26:21.014Z,2.83
2023-03-20T18:28:49.468Z,2.65
2023-03-20T18:31:19.159Z,3.35
2023-03-20T18:33:51.680Z,2.50
2023-03-20T18:36:24.350Z,3.10
2023-03-20T18:38:52.555Z,3.28
2023-03-20T18:41:20.747Z,3.40
2023-03-20T18:43:48.470Z,3.20
2023-03-20T18:46:21.070Z,3.20
2023-03-20T18:48:50.040Z,3.25
2023-03-20T18:51:18.345Z,3.00
2023-03-20T18:53:46.264Z,3.35
2023-03-20T18:56:15.788Z,3.40
2023-03-20T18:58:43.507Z,3.50
2023-03-20T19:01:15.674Z,3.28
2023-03-20T19:06:23.185Z,3.53
2023-03-20T19:08:51.423Z,3.92
2023-03-20T19:11:21.579Z,3.90
2023-03-20T19:13:52.531Z,4.00
2023-03-20T19:16:26.600Z,3.80
2023-03-20T19:18:56.255Z,4.53
2023-03-20T19:21:27.054Z,3.88
2023-03-20T19:24:03.442Z,3.95
2023-03-20T19:26:32.312Z,3.80
2023-03-20T19:29:01.272Z,3.45
2023-03-20T19:31:29.269Z,3.35
2023-03-20T19:33:56.943Z,3.70
2023-03-20T19:36:34.598Z,2.60
2023-03-20T19:39:04.233Z,3.17
2023-03-20T19:41:32.545Z,3.28
2023-03-20T19:44:01.471Z,3.35
2023-03-20T19:46:40.369Z,3.38
2023-03-20T19:49:20.416Z,2.67
2023-03-20T19:51:49.796Z,2.97
2023-03-20T19:54:17.410Z,2.35
2023-03-20T19:56:44.909Z,2.78
2023-03-20T19:59:16.005Z,2.20
2023-03-20T20:01:45.591Z,2.00
2023-03-20T20:04:13.433Z,2.40
2023-03-20T20:06:41.881Z,1.75
2023-03-20T20:09:09.337Z,2.00
2023-03-20T20:11:36.926Z,2.15
2023-03-20T20:14:08.473Z,1.83
2023-03-20T20:16:39.215Z,1.98
2023-03-20T20:19:06.800Z,1.83
2023-03-20T20:24:21.880Z,2.08
2023-03-20T20:27:00.076Z,1.92
2023-03-20T20:29:34.656Z,1.75
2023-03-20T20:32:02.321Z,1.98
2023-03-20T20:40:07.062Z,1.90
2023-03-20T20:42:35.034Z,1.77
2023-03-20T20:45:02.339Z,1.83
2023-03-20T20:47:30.001Z,1.88
2023-03-20T20:49:57.901Z,2.03
2023-03-20T20:52:25.448Z,2.08
2023-03-20T20:54:52.722Z,1.88
2023-03-20T20:57:20.375Z,1.98
2023-03-20T20:59:47.598Z,1.85
2023-03-20T21:02:17.542Z,1.50
2023-03-20T21:04:45.487Z,1.58
2023-03-20T21:07:13.804Z,1.85
2023-03-20T21:09:41.341Z,2.08
2023-03-20T21:12:10.727Z,2.08
2023-03-20T21:14:40.754Z,1.92
2023-03-20T21:17:09.932Z,2.25
2023-03-20T21:19:42.149Z,1.80
2023-03-20T21:22:13.390Z,2.15
2023-03-20T21:24:41.347Z,1.90
2023-03-20T21:27:13.958Z,1.70
2023-03-20T21:29:43.232Z,1.67
2023-03-20T21:32:12.918Z,2.03
2023-03-20T21:34:41.078Z,1.75
2023-03-20T21:38:13.195Z,1.75
2023-03-20T21:39:58.539Z,1.98
2023-03-20T21:42:26.431Z,2.30
2023-03-20T21:45:44.687Z,2.17
2023-03-20T21:50:55.524Z,1.58
2023-03-20T21:59:33.126Z,1.90
2023-03-20T22:02:01.580Z,1.80
2023-03-20T22:07:45.028Z,2.10
2023-03-20T22:30:40.747Z,2.22
2023-03-20T22:46:45.214Z,3.10
2023-03-20T22:49:09.622Z,3.15
2023-03-20T22:51:43.981Z,3.25
2023-03-20T22:54:19.832Z,3.80
2023-03-20T22:56:47.097Z,4.15
2023-03-20T22:59:14.594Z,4.07
2023-03-20T23:01:41.859Z,4.68
2023-03-20T23:04:09.453Z,4.25
2023-03-20T23:06:36.680Z,5.00
2023-03-20T23:09:14.537Z,5.93
2023-03-20T23:12:00.579Z,5.57
2023-03-20T23:14:46.490Z,5.20
2023-03-20T23:17:13.915Z,5.28
2023-03-20T23:19:49.189Z,5.43
2023-03-20T23:22:19.368Z,5.85
2023-03-20T23:24:47.013Z,6.15
2023-03-20T23:27:14.251Z,5.88
2023-03-20T23:29:41.825Z,5.75
2023-03-20T23:32:09.044Z,7.05
2023-03-20T23:34:37.509Z,6.25
2023-03-20T23:37:04.769Z,6.25
2023-03-20T23:39:32.276Z,6.35
2023-03-20T23:42:12.123Z,5.75
2023-03-20T23:44:53.541Z,6.47
2023-03-20T23:47:25.568Z,6.60
2023-03-20T23:49:53.279Z,5.82
2023-03-20T23:52:20.753Z,6.35
2023-03-20T23:54:48.321Z,5.97
2023-03-20T23:57:15.833Z,5.50
2023-03-20T23:59:43.825Z,6.43
